Simaisma — SWSP — position and weather

sailwx.info

Track history (hours):
 
Tides and Currents Weather Stations Pressure Air Temp Water Temp Dewpoint Dewpoint Depression Visibility Wind Speed Wind Dir Waves Ship Positions

Simaisma

Last reported at 2017-Sep-24 00:40 UTC. Time now 2017-Sep-25 01:08 UTC.
Position N 43°44' E 014°18'.

Length 285 m; draft 9.2 m.

Type: Ship (hazmat cat A). MMSI: 240451591.

Date/timePositionNaut miles runAvg speedWind from/ knotsBaromVisibWave heightAir tempDewpointWater temp
2017-Sep-24 00:40N 43°44' E 014°18'213.9
2017-Sep-24 00:30N 43°46' E 014°15'2313.9
2017-Sep-23 22:51N 43°55' E 013°47'514.0
2017-Sep-23 22:29N 43°58' E 013°40'713.7
2017-Sep-23 22:00N 44°01' E 013°32'713.7
2017-Sep-23 21:30N 44°05' E 013°25'1412.8
2017-Sep-23 20:24N 44°15' E 013°11'613.3
2017-Sep-23 19:58N 44°21' E 013°09'  
2017-Sep-19 13:57N 35°34' E 022°56'2912.0
2017-Sep-19 11:29N 35°14' E 023°23'612.8
2017-Sep-19 11:00N 35°09' E 023°28'  
Track history (hours):
 
Tides and Currents Weather Stations Pressure Air Temp Water Temp Dewpoint Dewpoint Depression Visibility Wind Speed Wind Dir Waves Ship Positions

Simaisma

Last reported at 2017-Sep-24 00:40 UTC. Time now 2017-Sep-25 01:08 UTC.
Position N 43°44' E 014°18'.

Length 285 m; draft 9.2 m.

Type: Ship (hazmat cat A). MMSI: 240451591.

Date/timePositionNaut miles runAvg speedWind from/ knotsBaromVisibWave heightAir tempDewpointWater temp
2017-Sep-24 00:40N 43°44' E 014°18'213.9
2017-Sep-24 00:30N 43°46' E 014°15'2313.9
2017-Sep-23 22:51N 43°55' E 013°47'514.0
2017-Sep-23 22:29N 43°58' E 013°40'713.7
2017-Sep-23 22:00N 44°01' E 013°32'713.7
2017-Sep-23 21:30N 44°05' E 013°25'1412.8
2017-Sep-23 20:24N 44°15' E 013°11'613.3
2017-Sep-23 19:58N 44°21' E 013°09'  
2017-Sep-19 13:57N 35°34' E 022°56'2912.0
2017-Sep-19 11:29N 35°14' E 023°23'612.8
2017-Sep-19 11:00N 35°09' E 023°28'  

Dump ship's entire track history